Time;durP1;ratioP1;P1;durP2;ratioP2;P2;SDS_P1;SDS_P2;PMS_P1;PMS_P2;Temp;Humidity;BMP_temperature;BMP_pressure;BME280_temperature;BME280_humidity;BME280_pressure;Samples;Min_cycle;Max_cycle;Signal;HPM_P1;HPM_P2
2024/02/28 00:02:26;;;;;;;;;;;;;;;13.77;75.83;100424.13;4835830;29;19916;-79
2024/02/28 00:05:13;;;;;;;;;;;;;;;13.78;75.72;100431.22;4834092;29;20387;-80
2024/02/28 00:08:02;;;;;;;;;;;;;;;13.74;75.80;100433.03;4841473;29;19917;-81
2024/02/28 00:10:54;;;;;;;;;;;;;;;13.74;76.27;100442.03;4845395;29;19921;-80
2024/02/28 00:13:44;;;;;;;;;;;;;;;13.73;76.75;100437.69;4843416;29;19928;-80
2024/02/28 00:16:33;;;;;;;;;;;;;;;13.63;76.93;100438.16;4841445;29;19924;-80
2024/02/28 00:19:23;;;;;;;;;;;;;;;13.60;77.58;100438.88;4844835;29;19920;-81
2024/02/28 00:22:12;;;;;;;;;;;;;;;13.61;77.12;100443.97;4828598;29;19917;-80
2024/02/28 00:25:05;;;;;;;;;;;;;;;13.55;77.97;100448.09;4840948;29;19920;-80
2024/02/28 00:27:54;;;;;;;;;;;;;;;13.60;77.91;100450.59;4844123;29;19920;-80
2024/02/28 00:30:46;;;;;;;;;;;;;;;13.62;77.86;100448.28;4841702;29;19928;-80
2024/02/28 00:33:38;;;;;;;;;;;;;;;13.65;77.90;100452.28;4840127;29;19924;-80
2024/02/28 00:36:30;;;;;;;;;;;;;;;13.55;78.08;100453.53;4843536;29;19917;-80
2024/02/28 00:39:23;;;;;;;;;;;;;;;13.48;78.90;100457.97;4841329;29;19917;-80
2024/02/28 00:42:15;;;;;;;;;;;;;;;13.52;78.14;100451.47;4842097;29;19920;-80
2024/02/28 00:45:07;;;;;;;;;;;;;;;13.59;77.72;100453.66;4842843;29;19917;-79
2024/02/28 00:47:59;;;;;;;;;;;;;;;13.67;77.54;100459.00;4840425;29;19920;-79
2024/02/28 00:50:51;;;;;;;;;;;;;;;13.65;77.29;100466.75;4844236;29;19916;-80
2024/02/28 00:53:43;;;;;;;;;;;;;;;13.50;77.80;100467.44;4841887;29;20383;-80
2024/02/28 00:56:35;;;;;;;;;;;;;;;13.57;77.95;100470.38;4845021;29;19924;-79
2024/02/28 00:59:30;;;;;;;;;;;;;;;13.57;77.46;100475.84;4842842;29;19916;-80
2024/02/28 01:02:22;;;;;;;;;;;;;;;13.65;77.21;100477.69;4841581;29;20310;-79
2024/02/28 01:05:14;;;;;;;;;;;;;;;13.65;77.20;100474.16;4844680;29;19924;-80
2024/02/28 01:08:03;;;;;;;;;;;;;;;13.64;77.00;100470.63;4842077;29;20375;-80
2024/02/28 01:10:53;;;;;;;;;;;;;;;13.59;76.96;100465.38;4840784;29;19947;-80
2024/02/28 01:13:45;;;;;;;;;;;;;;;13.64;77.35;100467.88;4843968;29;19925;-80
2024/02/28 01:16:40;;;;;;;;;;;;;;;13.56;77.30;100465.28;4842394;29;19917;-80
2024/02/28 01:19:32;;;;;;;;;;;;;;;13.65;75.62;100464.03;4848009;29;19916;-80
2024/02/28 01:22:24;;;;;;;;;;;;;;;13.66;75.51;100468.31;4844704;29;19920;-79
2024/02/28 01:25:13;;;;;;;;;;;;;;;13.67;75.70;100469.13;4844377;29;20386;-80
2024/02/28 01:28:05;;;;;;;;;;;;;;;13.63;76.08;100470.94;4847637;29;19920;-78
2024/02/28 01:30:57;;;;;;;;;;;;;;;13.74;75.41;100465.81;4845807;29;19916;-81
2024/02/28 01:33:49;;;;;;;;;;;;;;;13.75;75.57;100473.69;4843359;29;19920;-79
2024/02/28 01:36:42;;;;;;;;;;;;;;;13.79;74.82;100473.78;4846759;29;19921;-79
2024/02/28 01:39:33;;;;;;;;;;;;;;;13.77;75.16;100473.34;4844093;29;19916;-80
2024/02/28 01:42:26;;;;;;;;;;;;;;;13.78;75.91;100466.72;4844168;29;19920;-79
2024/02/28 01:45:18;;;;;;;;;;;;;;;13.85;76.43;100472.44;4846055;29;19916;-81
2024/02/28 01:48:14;;;;;;;;;;;;;;;13.79;76.98;100463.66;4843541;29;19916;-80
2024/02/28 01:51:08;;;;;;;;;;;;;;;13.75;77.51;100461.97;4846845;29;19920;-80
2024/02/28 01:53:57;;;;;;;;;;;;;;;13.75;77.21;100462.75;4845064;29;20298;-80
2024/02/28 01:56:49;;;;;;;;;;;;;;;13.75;77.58;100464.69;4842799;29;20379;-80
2024/02/28 01:59:38;;;;;;;;;;;;;;;13.77;77.71;100459.66;4846056;29;19917;-79
2024/02/28 02:02:30;;;;;;;;;;;;;;;13.72;77.44;100455.22;4843843;29;19916;-80
2024/02/28 02:05:20;;;;;;;;;;;;;;;13.67;77.65;100450.78;4847335;29;20379;-80
2024/02/28 02:08:17;;;;;;;;;;;;;;;13.64;77.65;100459.69;4845172;29;19916;-79
2024/02/28 02:11:09;;;;;;;;;;;;;;;13.56;78.06;100466.03;4843330;29;19917;-81
2024/02/28 02:14:01;;;;;;;;;;;;;;;13.55;77.37;100464.47;4846405;29;20709;-79
2024/02/28 02:16:53;;;;;;;;;;;;;;;13.61;76.80;100471.28;4844521;29;19916;-79
2024/02/28 02:19:45;;;;;;;;;;;;;;;13.57;76.74;100470.38;4842529;29;19919;-80
2024/02/28 02:22:43;;;;;;;;;;;;;;;13.61;76.59;100478.72;4843031;29;19920;-80
2024/02/28 02:25:35;;;;;;;;;;;;;;;13.60;76.74;100483.38;4843446;29;20405;-80
2024/02/28 02:28:25;;;;;;;;;;;;;;;13.72;76.55;100479.81;4845768;29;19920;-79
2024/02/28 02:31:17;;;;;;;;;;;;;;;13.87;75.53;100487.34;4844773;29;19920;-80
2024/02/28 02:34:09;;;;;;;;;;;;;;;13.89;75.31;100495.22;4842700;29;19920;-80
2024/02/28 02:37:01;;;;;;;;;;;;;;;13.77;75.78;100484.25;4846213;29;19916;-80
2024/02/28 02:39:53;;;;;;;;;;;;;;;13.58;75.67;100485.63;4844108;29;20302;-79
2024/02/28 02:42:45;;;;;;;;;;;;;;;13.54;76.18;100487.47;4841918;29;19925;-79
2024/02/28 02:45:42;;;;;;;;;;;;;;;13.33;75.99;100483.22;4845166;29;20306;-79
2024/02/28 02:48:34;;;;;;;;;;;;;;;13.12;75.94;100483.28;4842330;29;19916;-80
2024/02/28 02:51:26;;;;;;;;;;;;;;;13.10;75.33;100480.09;4845608;29;19916;-80
2024/02/28 02:54:18;;;;;;;;;;;;;;;13.02;75.49;100478.22;4844441;29;19925;-79
2024/02/28 02:57:10;;;;;;;;;;;;;;;13.00;74.61;100478.59;4842089;29;19917;-79
2024/02/28 03:00:02;;;;;;;;;;;;;;;12.98;74.33;100483.56;4845412;29;19946;-81
2024/02/28 03:02:54;;;;;;;;;;;;;;;12.99;74.22;100487.09;4841758;29;19921;-79
2024/02/28 03:05:51;;;;;;;;;;;;;;;12.97;73.99;100492.09;4846332;29;19920;-79
2024/02/28 03:08:43;;;;;;;;;;;;;;;12.96;74.22;100495.94;4843874;29;19920;-80
2024/02/28 03:11:35;;;;;;;;;;;;;;;12.85;74.56;100504.53;4842161;29;19920;-79
2024/02/28 03:14:27;;;;;;;;;;;;;;;12.94;74.72;100515.41;4845582;29;19920;-79
2024/02/28 03:17:16;;;;;;;;;;;;;;;12.92;74.45;100519.59;4843122;29;19920;-81
2024/02/28 03:20:08;;;;;;;;;;;;;;;12.89;75.10;100518.34;4841557;29;19916;-79
2024/02/28 03:23:00;;;;;;;;;;;;;;;12.90;75.24;100522.66;4841109;29;20290;-80
2024/02/28 03:25:51;;;;;;;;;;;;;;;12.96;75.38;100521.31;4843041;29;19917;-79
2024/02/28 03:28:43;;;;;;;;;;;;;;;13.01;74.93;100526.56;4845671;29;19917;-80
2024/02/28 03:31:35;;;;;;;;;;;;;;;13.07;75.63;100513.50;4843878;29;20398;-79
2024/02/28 03:34:27;;;;;;;;;;;;;;;13.10;75.20;100512.84;4841686;29;19920;-80
2024/02/28 03:37:19;;;;;;;;;;;;;;;13.17;75.57;100522.09;4845273;29;20588;-80
2024/02/28 03:40:09;;;;;;;;;;;;;;;13.21;75.12;100514.03;4842993;29;19917;-79
2024/02/28 03:43:01;;;;;;;;;;;;;;;13.33;74.82;100524.97;4840790;29;19917;-79
2024/02/28 03:45:56;;;;;;;;;;;;;;;13.39;74.80;100533.75;4844478;29;19916;-79
2024/02/28 03:48:47;;;;;;;;;;;;;;;13.38;74.00;100532.97;4842101;29;19917;-80
2024/02/28 03:51:45;;;;;;;;;;;;;;;13.39;74.52;100531.03;4844142;29;19932;-80
2024/02/28 03:54:37;;;;;;;;;;;;;;;13.42;74.26;100533.06;4843413;29;19920;-79
2024/02/28 03:57:29;;;;;;;;;;;;;;;13.48;73.66;100540.72;4840994;29;20592;-79
2024/02/28 04:00:21;;;;;;;;;;;;;;;13.50;73.84;100538.47;4845178;29;19916;-78
2024/02/28 04:03:13;;;;;;;;;;;;;;;13.55;73.60;100537.44;4842928;29;19916;-80
2024/02/28 04:06:05;;;;;;;;;;;;;;;13.58;73.44;100539.47;4844693;29;19920;-79
2024/02/28 04:09:02;;;;;;;;;;;;;;;13.55;73.69;100549.16;4843845;29;20290;-79
2024/02/28 04:11:54;;;;;;;;;;;;;;;13.51;73.61;100556.41;4841752;29;20390;-80
2024/02/28 04:14:46;;;;;;;;;;;;;;;13.54;73.50;100549.50;4845111;29;20374;-79
2024/02/28 04:17:41;;;;;;;;;;;;;;;13.54;73.51;100553.03;4832748;29;19917;-79
2024/02/28 04:20:33;;;;;;;;;;;;;;;13.52;73.71;100555.28;4822455;29;19917;-79
2024/02/28 04:23:25;;;;;;;;;;;;;;;13.47;74.03;100554.72;4825957;29;19920;-79
2024/02/28 04:26:17;;;;;;;;;;;;;;;13.41;74.27;100559.59;4824250;29;20291;-80
2024/02/28 04:29:07;;;;;;;;;;;;;;;13.43;74.27;100560.06;4827118;29;19916;-80
2024/02/28 04:31:59;;;;;;;;;;;;;;;13.41;74.11;100567.00;4825229;29;20303;-80
2024/02/28 04:34:51;;;;;;;;;;;;;;;13.50;73.85;100573.97;4822868;29;19925;-79
2024/02/28 04:37:43;;;;;;;;;;;;;;;13.51;73.83;100567.34;4826422;29;19916;-78
2024/02/28 04:40:35;;;;;;;;;;;;;;;13.59;73.45;100579.34;4824804;29;19921;-79
2024/02/28 04:43:27;;;;;;;;;;;;;;;13.61;73.61;100586.03;4822477;29;19920;-79
2024/02/28 04:46:17;;;;;;;;;;;;;;;13.58;73.40;100588.66;4822178;29;20349;-80
2024/02/28 04:49:09;;;;;;;;;;;;;;;13.59;73.27;100588.34;4823529;29;19920;-78
2024/02/28 04:52:01;;;;;;;;;;;;;;;13.60;73.18;100581.72;4825364;29;19920;-78
2024/02/28 04:54:53;;;;;;;;;;;;;;;13.61;73.39;100586.03;4827562;29;20383;-79
2024/02/28 04:57:45;;;;;;;;;;;;;;;13.61;73.49;100586.03;4825997;29;20375;-79
2024/02/28 05:00:34;;;;;;;;;;;;;;;13.60;73.62;100589.94;4829806;29;19916;-79
2024/02/28 05:03:30;;;;;;;;;;;;;;;13.55;73.56;100592.88;4827814;29;19924;-79
2024/02/28 05:06:22;;;;;;;;;;;;;;;13.56;73.86;100585.50;4832865;29;19921;-79
2024/02/28 05:09:14;;;;;;;;;;;;;;;13.59;74.04;100584.81;4844477;29;19916;-79
2024/02/28 05:12:06;;;;;;;;;;;;;;;13.59;73.94;100593.00;4844827;29;20311;-79
2024/02/28 05:14:58;;;;;;;;;;;;;;;13.62;74.01;100595.03;4841496;29;19924;-79
2024/02/28 05:17:52;;;;;;;;;;;;;;;13.73;73.54;100596.19;4840732;29;19916;-78
2024/02/28 05:20:43;;;;;;;;;;;;;;;13.82;73.46;100598.81;4843475;29;20311;-79
2024/02/28 05:23:33;;;;;;;;;;;;;;;13.80;73.39;100601.13;4847335;29;19928;-79
2024/02/28 05:26:25;;;;;;;;;;;;;;;13.81;73.14;100598.06;4845905;29;19920;-80
2024/02/28 05:29:17;;;;;;;;;;;;;;;13.71;73.42;100599.28;4842957;29;19917;-79
2024/02/28 05:32:09;;;;;;;;;;;;;;;13.81;72.78;100600.78;4839554;29;19920;-79
2024/02/28 05:35:01;;;;;;;;;;;;;;;13.68;72.91;100605.41;4844326;29;20386;-81
2024/02/28 05:37:54;;;;;;;;;;;;;;;13.63;72.00;100611.09;4846120;29;19920;-78
2024/02/28 05:40:46;;;;;;;;;;;;;;;13.50;71.82;100611.41;4848730;29;19920;-81
2024/02/28 05:43:38;;;;;;;;;;;;;;;13.49;71.37;100618.81;4843291;29;19920;-79
2024/02/28 05:46:30;;;;;;;;;;;;;;;13.62;71.63;100617.69;4844516;29;20379;-80
2024/02/28 05:49:22;;;;;;;;;;;;;;;13.55;68.97;100622.94;4844814;29;19917;-81
2024/02/28 05:52:14;;;;;;;;;;;;;;;13.28;68.91;100623.50;4842995;29;19920;-82
2024/02/28 05:55:06;;;;;;;;;;;;;;;13.17;69.71;100638.69;4847248;29;19954;-80
2024/02/28 05:57:58;;;;;;;;;;;;;;;13.08;68.89;100636.03;4844278;29;19916;-81
2024/02/28 06:00:47;;;;;;;;;;;;;;;12.97;69.50;100647.66;4842920;29;19920;-81
2024/02/28 06:03:39;;;;;;;;;;;;;;;12.88;69.65;100652.38;4844837;29;20302;-82
2024/02/28 06:06:31;;;;;;;;;;;;;;;12.81;69.48;100658.38;4846939;29;19939;-81
2024/02/28 06:09:23;;;;;;;;;;;;;;;12.70;69.77;100646.25;4846781;29;19924;-80
2024/02/28 06:12:15;;;;;;;;;;;;;;;12.73;70.10;100651.84;4844656;29;19917;-80
2024/02/28 06:15:07;;;;;;;;;;;;;;;12.66;70.21;100654.28;4842940;29;20386;-81
2024/02/28 06:17:59;;;;;;;;;;;;;;;12.63;70.47;100659.63;4845647;29;20311;-81
2024/02/28 06:20:50;;;;;;;;;;;;;;;12.61;70.36;100668.13;4843812;29;20387;-80
2024/02/28 06:23:42;;;;;;;;;;;;;;;12.32;70.44;100663.47;4846659;29;19921;-81
2024/02/28 06:26:34;;;;;;;;;;;;;;;12.37;70.51;100671.47;4843595;29;19920;-83
2024/02/28 06:29:26;;;;;;;;;;;;;;;12.29;71.56;100676.97;4841718;29;19935;-81
2024/02/28 06:32:54;;;;;;;;;;;;;;;12.43;71.68;100680.25;4845031;29;19916;-83
2024/02/28 06:35:55;;;;;;;;;;;;;;;12.30;70.97;100684.81;4844895;29;19928;-83
2024/02/28 06:38:47;;;;;;;;;;;;;;;12.32;71.33;100696.19;4852454;29;19916;-82
2024/02/28 06:41:39;;;;;;;;;;;;;;;12.30;71.76;100703.88;4853390;29;19920;-80
2024/02/28 06:44:38;;;;;;;;;;;;;;;12.37;71.68;100708.84;4855907;29;19916;-81
2024/02/28 06:48:12;;;;;;;;;;;;;;;12.57;71.33;100713.56;4821856;29;19908;-81
2024/02/28 06:51:04;;;;;;;;;;;;;;;12.63;71.97;100714.97;4846263;29;19916;-82
2024/02/28 06:53:56;;;;;;;;;;;;;;;12.76;71.81;100715.88;4844502;29;19924;-82
2024/02/28 06:56:48;;;;;;;;;;;;;;;12.86;71.08;100715.47;4838745;29;19916;-82
2024/02/28 06:59:40;;;;;;;;;;;;;;;13.03;69.81;100728.22;4842550;29;19920;-83
2024/02/28 07:02:31;;;;;;;;;;;;;;;12.99;69.54;100735.50;4840676;29;19920;-82
2024/02/28 07:05:24;;;;;;;;;;;;;;;13.02;69.87;100734.81;4846031;29;19916;-81
2024/02/28 07:08:15;;;;;;;;;;;;;;;13.02;69.42;100732.09;4841758;29;19924;-82
2024/02/28 07:11:14;;;;;;;;;;;;;;;13.09;70.78;100737.84;4841014;29;19916;-81
2024/02/28 07:14:04;;;;;;;;;;;;;;;13.23;69.08;100739.22;4841244;29;19916;-81
2024/02/28 07:16:56;;;;;;;;;;;;;;;13.23;69.59;100746.59;4841169;29;20394;-82
2024/02/28 07:19:48;;;;;;;;;;;;;;;13.25;69.26;100749.81;4839246;29;19916;-81
2024/02/28 07:22:37;;;;;;;;;;;;;;;13.28;69.88;100743.66;4841630;29;19917;-81
2024/02/28 07:25:29;;;;;;;;;;;;;;;13.34;69.96;100752.47;4842431;29;20298;-82
2024/02/28 07:28:21;;;;;;;;;;;;;;;13.40;69.52;100757.41;4844898;29;19920;-82
2024/02/28 07:31:16;;;;;;;;;;;;;;;13.38;69.92;100759.66;4843832;29;19920;-83
2024/02/28 07:34:08;;;;;;;;;;;;;;;13.36;69.90;100755.69;4841415;29;19916;-83
2024/02/28 07:37:03;;;;;;;;;;;;;;;13.35;69.68;100760.34;4844544;29;19916;-82
2024/02/28 07:39:56;;;;;;;;;;;;;;;13.49;69.72;100755.41;4843176;29;19921;-82
2024/02/28 07:42:47;;;;;;;;;;;;;;;13.64;68.64;100762.19;4838824;29;20314;-82
2024/02/28 07:45:37;;;;;;;;;;;;;;;13.58;68.78;100760.78;4841902;29;19916;-82
2024/02/28 07:48:29;;;;;;;;;;;;;;;13.58;69.38;100769.78;4840078;29;19916;-84
2024/02/28 07:51:21;;;;;;;;;;;;;;;13.82;68.62;100777.28;4844796;29;19920;-81
2024/02/28 07:54:13;;;;;;;;;;;;;;;13.73;69.35;100776.56;4843010;29;20398;-80
2024/02/28 07:57:08;;;;;;;;;;;;;;;13.70;70.01;100774.53;4840974;29;19916;-82
2024/02/28 08:00:00;;;;;;;;;;;;;;;14.01;70.84;100782.28;4844292;29;19917;-81
2024/02/28 08:02:52;;;;;;;;;;;;;;;14.42;70.70;100782.22;4840426;29;19924;-85
2024/02/28 08:05:44;;;;;;;;;;;;;;;14.34;68.53;100785.78;4845253;29;19942;-82
2024/02/28 08:08:36;;;;;;;;;;;;;;;14.45;70.55;100787.00;4843657;29;19925;-83
2024/02/28 08:11:29;;;;;;;;;;;;;;;14.44;69.74;100792.78;4842431;29;19921;-84
2024/02/28 08:14:21;;;;;;;;;;;;;;;14.42;69.34;100800.56;4845481;29;19920;-83
2024/02/28 08:17:13;;;;;;;;;;;;;;;14.32;69.75;100807.22;4843634;29;19916;-83
2024/02/28 08:20:05;;;;;;;;;;;;;;;14.54;70.15;100806.03;4840975;29;19920;-83
2024/02/28 08:22:57;;;;;;;;;;;;;;;14.82;68.88;100811.69;4840618;29;19924;-83
2024/02/28 08:25:48;;;;;;;;;;;;;;;14.77;67.55;100815.44;4842686;29;19916;-83
2024/02/28 08:28:40;;;;;;;;;;;;;;;14.85;66.96;100816.47;4848883;29;19916;-83
2024/02/28 08:31:32;;;;;;;;;;;;;;;14.67;66.30;100812.34;4847303;29;19932;-83
2024/02/28 08:34:24;;;;;;;;;;;;;;;14.51;66.08;100818.47;4845257;29;19924;-83
2024/02/28 08:37:14;;;;;;;;;;;;;;;14.48;67.03;100821.06;4844264;29;19920;-83
2024/02/28 08:40:06;;;;;;;;;;;;;;;14.52;67.16;100816.53;4842660;29;19916;-83
2024/02/28 08:42:58;;;;;;;;;;;;;;;14.42;67.39;100820.53;4825514;29;19921;-84
2024/02/28 08:45:50;;;;;;;;;;;;;;;14.36;67.44;100819.13;4829521;29;19920;-83
2024/02/28 08:48:42;;;;;;;;;;;;;;;14.33;67.81;100825.22;4826988;29;19917;-84
2024/02/28 08:51:34;;;;;;;;;;;;;;;14.30;67.55;100827.84;4825335;29;19916;-84
2024/02/28 08:54:31;;;;;;;;;;;;;;;14.38;67.76;100832.44;4828644;29;19925;-84
2024/02/28 08:57:23;;;;;;;;;;;;;;;14.31;68.25;100827.50;4826155;29;19920;-83
2024/02/28 09:00:15;;;;;;;;;;;;;;;14.34;67.90;100835.03;4829879;29;19924;-83
2024/02/28 09:03:07;;;;;;;;;;;;;;;14.31;68.91;100833.00;4827283;29;19921;-83
2024/02/28 09:05:58;;;;;;;;;;;;;;;14.36;68.58;100838.28;4834160;29;19925;-82
2024/02/28 09:08:50;;;;;;;;;;;;;;;14.57;67.49;100835.47;4832468;29;20377;-82
2024/02/28 09:11:42;;;;;;;;;;;;;;;14.64;67.57;100832.97;4838345;29;19924;-82
2024/02/28 09:14:32;;;;;;;;;;;;;;;14.87;67.37;100841.56;4846059;29;19924;-83
2024/02/28 09:17:23;;;;;;;;;;;;;;;15.05;66.65;100842.94;4842946;29;19920;-82
2024/02/28 09:20:15;;;;;;;;;;;;;;;15.22;65.93;100839.19;4842077;29;19916;-82
2024/02/28 09:23:06;;;;;;;;;;;;;;;15.30;65.76;100844.53;4838454;29;19916;-81
2024/02/28 09:25:56;;;;;;;;;;;;;;;15.47;65.14;100845.44;4844100;29;19935;-82
2024/02/28 09:28:48;;;;;;;;;;;;;;;15.51;65.00;100841.69;4839293;29;19916;-81
2024/02/28 09:31:40;;;;;;;;;;;;;;;15.50;65.27;100847.47;4844963;29;20391;-81
2024/02/28 09:34:32;;;;;;;;;;;;;;;15.55;64.87;100850.00;4845097;29;19928;-80
2024/02/28 09:37:24;;;;;;;;;;;;;;;15.60;64.66;100858.00;4839774;29;20350;-80
2024/02/28 09:40:16;;;;;;;;;;;;;;;15.66;64.38;100846.47;4846155;29;20346;-81
2024/02/28 09:43:13;;;;;;;;;;;;;;;15.71;64.40;100842.69;4841383;29;19916;-82
2024/02/28 09:46:05;;;;;;;;;;;;;;;15.82;64.10;100846.53;4843488;29;19916;-82
2024/02/28 09:48:57;;;;;;;;;;;;;;;15.91;64.06;100855.41;4846868;29;19916;-80
2024/02/28 09:51:49;;;;;;;;;;;;;;;15.91;64.62;100852.69;4845115;29;20406;-82
2024/02/28 09:54:42;;;;;;;;;;;;;;;15.99;63.90;100854.50;4847494;29;19921;-81
2024/02/28 09:57:34;;;;;;;;;;;;;;;16.04;63.70;100850.72;4845113;29;20302;-81
2024/02/28 10:00:27;;;;;;;;;;;;;;;16.12;63.36;100847.00;4845960;29;19916;-81
2024/02/28 10:03:23;;;;;;;;;;;;;;;16.15;62.57;100847.09;4845546;29;20378;-81
2024/02/28 10:06:15;;;;;;;;;;;;;;;16.17;62.71;100850.31;4842299;29;19920;-81
2024/02/28 10:09:07;;;;;;;;;;;;;;;16.06;62.24;100860.16;4846369;29;19920;-81
2024/02/28 10:11:59;;;;;;;;;;;;;;;16.07;62.68;100859.03;4844467;29;19916;-81
2024/02/28 10:14:51;;;;;;;;;;;;;;;16.05;62.42;100863.28;4842377;29;20378;-81
2024/02/28 10:17:43;;;;;;;;;;;;;;;16.00;62.79;100863.53;4845351;29;19920;-81
2024/02/28 10:20:35;;;;;;;;;;;;;;;16.02;62.88;100864.75;4843847;29;19916;-81
2024/02/28 10:23:28;;;;;;;;;;;;;;;16.02;63.05;100863.97;4848337;29;19935;-81
2024/02/28 10:26:20;;;;;;;;;;;;;;;15.97;63.11;100872.44;4845344;29;19916;-82
2024/02/28 10:29:12;;;;;;;;;;;;;;;16.06;62.35;100868.41;4846432;29;19917;-81
2024/02/28 10:32:05;;;;;;;;;;;;;;;16.09;62.58;100881.44;4844649;29;20298;-81
2024/02/28 10:34:57;;;;;;;;;;;;;;;16.13;62.55;100882.34;4839480;29;19924;-80
2024/02/28 10:37:49;;;;;;;;;;;;;;;16.19;61.94;100891.13;4842124;29;19920;-82
2024/02/28 10:40:42;;;;;;;;;;;;;;;16.17;61.80;100888.72;4845400;29;19917;-81
2024/02/28 10:43:33;;;;;;;;;;;;;;;16.19;61.34;100891.13;4843561;29;19920;-82
2024/02/28 10:46:26;;;;;;;;;;;;;;;16.29;61.65;100900.81;4843389;29;19920;-82
2024/02/28 10:49:18;;;;;;;;;;;;;;;16.27;62.25;100896.44;4842094;29;19917;-82
2024/02/28 10:52:10;;;;;;;;;;;;;;;16.21;62.36;100899.78;4841489;29;19921;-80
2024/02/28 10:55:04;;;;;;;;;;;;;;;15.96;62.86;100898.25;4845027;29;20299;-80
2024/02/28 10:58:00;;;;;;;;;;;;;;;15.81;63.43;100891.56;4843099;29;19916;-82
2024/02/28 11:00:52;;;;;;;;;;;;;;;15.70;64.46;100895.91;4843410;29;19924;-80
2024/02/28 11:03:44;;;;;;;;;;;;;;;15.59;65.06;100898.34;4848724;29;19920;-79
2024/02/28 11:06:34;;;;;;;;;;;;;;;15.49;65.90;100895.25;4845871;29;20314;-80
2024/02/28 11:09:27;;;;;;;;;;;;;;;15.42;66.61;100906.75;4846827;29;19916;-80
2024/02/28 11:12:31;;;;;;;;;;;;;;;15.31;67.74;100900.94;4844446;29;20390;-81
2024/02/28 11:15:27;;;;;;;;;;;;;;;15.25;67.88;100902.31;4843778;29;19920;-80
2024/02/28 11:18:19;;;;;;;;;;;;;;;15.20;68.20;100910.75;4843192;29;19917;-80
2024/02/28 11:21:17;;;;;;;;;;;;;;;15.17;68.55;100916.13;4842761;29;20310;-79
2024/02/28 11:24:09;;;;;;;;;;;;;;;14.97;70.39;100920.53;4844710;29;19916;-79
2024/02/28 11:27:01;;;;;;;;;;;;;;;14.96;71.45;100929.88;4847294;29;19920;-80
2024/02/28 11:29:54;;;;;;;;;;;;;;;14.96;71.68;100921.69;4844975;29;20351;-81
2024/02/28 11:32:46;;;;;;;;;;;;;;;14.91;72.40;100927.38;4845929;29;19924;-80
2024/02/28 11:35:38;;;;;;;;;;;;;;;14.72;73.49;100930.63;4846365;29;20184;-81
2024/02/28 11:38:30;;;;;;;;;;;;;;;14.72;73.51;100932.56;4848494;29;19917;-81
2024/02/28 11:41:27;;;;;;;;;;;;;;;14.69;73.83;100935.97;4845459;29;19928;-82
2024/02/28 11:44:19;;;;;;;;;;;;;;;14.64;74.42;100938.91;4843933;29;19916;-82
2024/02/28 11:47:14;;;;;;;;;;;;;;;14.52;74.97;100936.94;4846990;29;20326;-81
2024/02/28 11:50:06;;;;;;;;;;;;;;;14.41;76.00;100950.25;4850305;29;19924;-81
2024/02/28 11:52:58;;;;;;;;;;;;;;;14.35;76.72;100937.88;4847574;29;19920;-81
2024/02/28 11:55:50;;;;;;;;;;;;;;;14.41;76.71;100933.03;4849302;29;19924;-81
2024/02/28 11:58:51;;;;;;;;;;;;;;;14.41;76.66;100931.09;4838137;29;20457;-81
2024/02/28 12:01:43;;;;;;;;;;;;;;;14.38;77.26;100934.47;4846959;29;19917;-81
2024/02/28 12:04:38;;;;;;;;;;;;;;;14.35;77.55;100926.13;4846243;29;19927;-81
2024/02/28 12:07:27;;;;;;;;;;;;;;;14.33;77.24;100931.91;4844997;29;19916;-80
2024/02/28 12:10:19;;;;;;;;;;;;;;;14.32;76.62;100929.53;4847668;29;19917;-81
2024/02/28 12:13:11;;;;;;;;;;;;;;;14.45;76.15;100942.16;4845154;29;20383;-81
2024/02/28 12:16:03;;;;;;;;;;;;;;;14.61;74.77;100934.13;4844732;29;20347;-79
2024/02/28 12:18:55;;;;;;;;;;;;;;;14.64;74.96;100944.38;4845703;29;19916;-81
2024/02/28 12:21:47;;;;;;;;;;;;;;;14.58;74.79;100926.59;4838945;29;19921;-80
2024/02/28 12:24:36;;;;;;;;;;;;;;;14.49;75.52;100924.72;4845733;29;20302;-82
2024/02/28 12:27:25;;;;;;;;;;;;;;;14.49;75.92;100921.19;4844251;29;20391;-80
2024/02/28 12:30:17;;;;;;;;;;;;;;;14.50;76.13;100909.91;4844227;29;19924;-80
2024/02/28 12:33:09;;;;;;;;;;;;;;;14.55;75.92;100912.44;4848110;29;19920;-81
2024/02/28 12:36:03;;;;;;;;;;;;;;;14.60;75.92;100907.88;4845425;29;19920;-81
2024/02/28 12:38:55;;;;;;;;;;;;;;;14.57;76.45;100900.38;4852290;29;19920;-81
2024/02/28 12:41:47;;;;;;;;;;;;;;;14.58;76.44;100900.00;4843101;29;19921;-82
2024/02/28 12:44:38;;;;;;;;;;;;;;;14.54;76.57;100905.38;4844173;29;19921;-81
2024/02/28 12:47:28;;;;;;;;;;;;;;;14.51;76.72;100899.78;4847275;29;20386;-81
2024/02/28 12:50:20;;;;;;;;;;;;;;;14.42;77.87;100896.31;4846277;29;19916;-80
2024/02/28 12:53:12;;;;;;;;;;;;;;;14.30;78.36;100888.81;4843104;29;19917;-79
2024/02/28 12:56:05;;;;;;;;;;;;;;;14.26;78.74;100895.31;4849613;29;19920;-80
2024/02/28 12:58:57;;;;;;;;;;;;;;;14.22;79.31;100886.94;4844053;29;19920;-81
2024/02/28 13:01:47;;;;;;;;;;;;;;;14.22;79.16;100886.19;4841345;29;19920;-81
2024/02/28 13:04:39;;;;;;;;;;;;;;;14.22;79.50;100891.66;4846997;29;19921;-79
2024/02/28 13:07:29;;;;;;;;;;;;;;;14.20;80.24;100886.50;4843593;29;19917;-80
2024/02/28 13:10:21;;;;;;;;;;;;;;;14.35;79.79;100896.03;4847628;29;19916;-82
2024/02/28 13:13:13;;;;;;;;;;;;;;;14.32;80.01;100894.78;4847046;29;20714;-80
2024/02/28 13:16:06;;;;;;;;;;;;;;;14.42;79.27;100901.78;4845773;29;19921;-79
2024/02/28 13:18:58;;;;;;;;;;;;;;;14.61;78.83;100893.06;4846993;29;20417;-80
2024/02/28 13:21:50;;;;;;;;;;;;;;;14.57;78.98;100892.97;4845208;29;19924;-80
2024/02/28 13:24:42;;;;;;;;;;;;;;;14.60;79.22;100883.25;4847548;29;19917;-79
2024/02/28 13:27:34;;;;;;;;;;;;;;;14.45;81.16;100880.03;4846393;29;20021;-80
2024/02/28 13:30:26;;;;;;;;;;;;;;;14.45;80.01;100874.56;4849510;29;19946;-78
2024/02/28 13:33:18;;;;;;;;;;;;;;;14.41;80.55;100873.63;4847727;29;19916;-80
2024/02/28 13:36:08;;;;;;;;;;;;;;;14.43;79.63;100879.53;4845181;29;19924;-80
2024/02/28 13:39:00;;;;;;;;;;;;;;;14.45;79.96;100880.03;4841379;29;19920;-79
2024/02/28 13:41:52;;;;;;;;;;;;;;;14.43;80.34;100897.91;4848098;29;19916;-80
2024/02/28 13:44:42;;;;;;;;;;;;;;;14.46;79.98;100898.06;4847878;29;19916;-80
2024/02/28 13:47:34;;;;;;;;;;;;;;;14.46;79.76;100898.06;4843554;29;19917;-80
2024/02/28 13:50:24;;;;;;;;;;;;;;;14.49;79.71;100908.31;4847987;29;19923;-80
2024/02/28 13:53:16;;;;;;;;;;;;;;;14.47;80.42;100902.38;4852909;29;19924;-79
2024/02/28 13:56:08;;;;;;;;;;;;;;;14.52;80.30;100907.66;4861302;29;19920;-79
2024/02/28 13:58:57;;;;;;;;;;;;;;;14.54;80.20;100905.38;4844416;29;19920;-79
2024/02/28 14:01:49;;;;;;;;;;;;;;;14.53;80.44;100911.16;4855729;29;19916;-79
2024/02/28 14:04:41;;;;;;;;;;;;;;;14.50;80.65;100904.44;4846304;29;19921;-79
2024/02/28 14:07:33;;;;;;;;;;;;;;;14.47;79.98;100898.84;4843184;29;19920;-79
2024/02/28 14:10:24;;;;;;;;;;;;;;;14.46;80.04;100894.50;4847560;29;19917;-79
2024/02/28 14:13:16;;;;;;;;;;;;;;;14.39;80.43;100888.78;4845627;29;20140;-80
2024/02/28 14:16:03;;;;;;;;;;;;;;;14.36;79.78;100887.53;4848235;29;20575;-79
2024/02/28 14:18:55;;;;;;;;;;;;;;;14.31;79.54;100892.38;4839679;29;20387;-79
2024/02/28 14:21:47;;;;;;;;;;;;;;;14.21;80.70;100900.97;4826875;29;19924;-79
2024/02/28 14:24:39;;;;;;;;;;;;;;;14.16;80.86;100892.97;4823589;29;19917;-79
2024/02/28 14:27:32;;;;;;;;;;;;;;;14.06;81.15;100888.72;4827527;29;19916;-80
2024/02/28 14:30:24;;;;;;;;;;;;;;;14.02;81.21;100888.56;4825660;29;19917;-80
2024/02/28 14:33:16;;;;;;;;;;;;;;;14.03;81.51;100892.09;4829112;29;20383;-79
2024/02/28 14:36:06;;;;;;;;;;;;;;;13.97;81.65;100893.44;4827028;29;19921;-80
2024/02/28 14:38:57;;;;;;;;;;;;;;;13.98;81.83;100886.84;4824868;29;19924;-79
2024/02/28 14:41:49;;;;;;;;;;;;;;;13.97;81.87;100887.97;4826905;29;19917;-80
2024/02/28 14:44:41;;;;;;;;;;;;;;;14.02;81.55;100887.75;4826289;29;19917;-79